sensor_id;sensor_type;location;lat;lon;timestamp;P1;durP1;ratioP1;P2;durP2;ratioP2
6149;SDS011;3106;42.670;23.318;2024-03-02T00:01:47;40.10;;;16.83;;
6149;SDS011;3106;42.670;23.318;2024-03-02T00:04:14;39.83;;;17.50;;
6149;SDS011;3106;42.670;23.318;2024-03-02T00:06:42;36.97;;;17.07;;
6149;SDS011;3106;42.670;23.318;2024-03-02T00:09:11;35.93;;;15.87;;
6149;SDS011;3106;42.670;23.318;2024-03-02T00:11:41;42.73;;;17.67;;
6149;SDS011;3106;42.670;23.318;2024-03-02T00:14:14;37.47;;;16.87;;
6149;SDS011;3106;42.670;23.318;2024-03-02T00:16:42;38.60;;;15.30;;
6149;SDS011;3106;42.670;23.318;2024-03-02T00:19:09;34.20;;;16.67;;
6149;SDS011;3106;42.670;23.318;2024-03-02T00:21:36;34.20;;;16.50;;
6149;SDS011;3106;42.670;23.318;2024-03-02T00:24:06;35.23;;;16.80;;
6149;SDS011;3106;42.670;23.318;2024-03-02T00:26:46;34.00;;;16.40;;
6149;SDS011;3106;42.670;23.318;2024-03-02T00:29:16;42.03;;;17.77;;
6149;SDS011;3106;42.670;23.318;2024-03-02T00:31:45;44.97;;;16.90;;
6149;SDS011;3106;42.670;23.318;2024-03-02T00:34:13;42.23;;;19.60;;
6149;SDS011;3106;42.670;23.318;2024-03-02T00:36:41;42.57;;;19.30;;
6149;SDS011;3106;42.670;23.318;2024-03-02T00:39:08;42.80;;;18.47;;
6149;SDS011;3106;42.670;23.318;2024-03-02T00:41:38;44.47;;;19.47;;
6149;SDS011;3106;42.670;23.318;2024-03-02T00:44:09;41.43;;;18.40;;
6149;SDS011;3106;42.670;23.318;2024-03-02T00:46:40;37.67;;;17.93;;
6149;SDS011;3106;42.670;23.318;2024-03-02T00:49:11;37.03;;;17.43;;
6149;SDS011;3106;42.670;23.318;2024-03-02T00:51:46;36.87;;;17.83;;
6149;SDS011;3106;42.670;23.318;2024-03-02T00:54:14;40.03;;;18.50;;
6149;SDS011;3106;42.670;23.318;2024-03-02T00:56:41;44.20;;;19.40;;
6149;SDS011;3106;42.670;23.318;2024-03-02T00:59:11;37.23;;;17.43;;
6149;SDS011;3106;42.670;23.318;2024-03-02T01:01:40;41.00;;;18.40;;
6149;SDS011;3106;42.670;23.318;2024-03-02T01:04:07;37.17;;;17.53;;
6149;SDS011;3106;42.670;23.318;2024-03-02T01:06:34;40.30;;;18.97;;
6149;SDS011;3106;42.670;23.318;2024-03-02T01:09:02;36.97;;;17.17;;
6149;SDS011;3106;42.670;23.318;2024-03-02T01:11:29;34.27;;;16.00;;
6149;SDS011;3106;42.670;23.318;2024-03-02T01:13:56;38.80;;;17.80;;
6149;SDS011;3106;42.670;23.318;2024-03-02T01:16:23;42.70;;;16.80;;
6149;SDS011;3106;42.670;23.318;2024-03-02T01:18:51;35.37;;;15.27;;
6149;SDS011;3106;42.670;23.318;2024-03-02T01:21:18;31.67;;;14.87;;
6149;SDS011;3106;42.670;23.318;2024-03-02T01:23:45;31.37;;;15.47;;
6149;SDS011;3106;42.670;23.318;2024-03-02T01:26:13;35.80;;;15.47;;
6149;SDS011;3106;42.670;23.318;2024-03-02T01:28:52;30.83;;;13.97;;
6149;SDS011;3106;42.670;23.318;2024-03-02T01:31:19;34.17;;;15.00;;
6149;SDS011;3106;42.670;23.318;2024-03-02T01:33:46;26.10;;;14.00;;
6149;SDS011;3106;42.670;23.318;2024-03-02T01:36:14;32.60;;;15.43;;
6149;SDS011;3106;42.670;23.318;2024-03-02T01:38:41;43.63;;;17.77;;
6149;SDS011;3106;42.670;23.318;2024-03-02T01:41:08;39.70;;;15.90;;
6149;SDS011;3106;42.670;23.318;2024-03-02T01:43:34;36.70;;;16.97;;
6149;SDS011;3106;42.670;23.318;2024-03-02T01:46:01;37.17;;;17.37;;
6149;SDS011;3106;42.670;23.318;2024-03-02T01:48:28;35.90;;;17.47;;
6149;SDS011;3106;42.670;23.318;2024-03-02T01:50:54;38.80;;;17.90;;
6149;SDS011;3106;42.670;23.318;2024-03-02T01:53:23;40.80;;;17.93;;
6149;SDS011;3106;42.670;23.318;2024-03-02T01:55:50;38.77;;;17.33;;
6149;SDS011;3106;42.670;23.318;2024-03-02T01:58:17;45.50;;;17.50;;
6149;SDS011;3106;42.670;23.318;2024-03-02T02:00:44;31.40;;;15.63;;
6149;SDS011;3106;42.670;23.318;2024-03-02T02:03:18;33.70;;;17.10;;
6149;SDS011;3106;42.670;23.318;2024-03-02T02:05:45;30.70;;;16.37;;
6149;SDS011;3106;42.670;23.318;2024-03-02T02:08:13;35.67;;;16.40;;
6149;SDS011;3106;42.670;23.318;2024-03-02T02:10:43;43.70;;;18.67;;
6149;SDS011;3106;42.670;23.318;2024-03-02T02:13:13;40.23;;;19.10;;
6149;SDS011;3106;42.670;23.318;2024-03-02T02:15:40;43.20;;;19.00;;
6149;SDS011;3106;42.670;23.318;2024-03-02T02:18:09;38.67;;;17.93;;
6149;SDS011;3106;42.670;23.318;2024-03-02T02:20:38;38.30;;;19.47;;
6149;SDS011;3106;42.670;23.318;2024-03-02T02:23:06;41.80;;;19.80;;
6149;SDS011;3106;42.670;23.318;2024-03-02T02:25:34;42.27;;;19.60;;
6149;SDS011;3106;42.670;23.318;2024-03-02T02:28:01;48.03;;;19.83;;
6149;SDS011;3106;42.670;23.318;2024-03-02T02:30:28;45.73;;;20.13;;
6149;SDS011;3106;42.670;23.318;2024-03-02T02:32:58;40.70;;;20.17;;
6149;SDS011;3106;42.670;23.318;2024-03-02T02:35:26;49.93;;;20.60;;
6149;SDS011;3106;42.670;23.318;2024-03-02T02:37:53;41.77;;;18.63;;
6149;SDS011;3106;42.670;23.318;2024-03-02T02:40:25;41.37;;;18.37;;
6149;SDS011;3106;42.670;23.318;2024-03-02T02:42:54;40.57;;;18.37;;
6149;SDS011;3106;42.670;23.318;2024-03-02T02:45:21;44.37;;;20.10;;
6149;SDS011;3106;42.670;23.318;2024-03-02T02:47:49;40.90;;;19.37;;
6149;SDS011;3106;42.670;23.318;2024-03-02T02:50:19;47.17;;;19.70;;
6149;SDS011;3106;42.670;23.318;2024-03-02T02:52:46;53.53;;;20.90;;
6149;SDS011;3106;42.670;23.318;2024-03-02T02:55:13;44.33;;;19.00;;
6149;SDS011;3106;42.670;23.318;2024-03-02T02:57:45;43.47;;;21.07;;
6149;SDS011;3106;42.670;23.318;2024-03-02T03:00:13;44.67;;;21.87;;
6149;SDS011;3106;42.670;23.318;2024-03-02T03:02:41;43.97;;;18.73;;
6149;SDS011;3106;42.670;23.318;2024-03-02T03:05:08;44.33;;;20.73;;
6149;SDS011;3106;42.670;23.318;2024-03-02T03:07:37;47.20;;;20.60;;
6149;SDS011;3106;42.670;23.318;2024-03-02T03:10:05;48.70;;;21.80;;
6149;SDS011;3106;42.670;23.318;2024-03-02T03:12:33;44.43;;;19.77;;
6149;SDS011;3106;42.670;23.318;2024-03-02T03:15:02;50.90;;;22.63;;
6149;SDS011;3106;42.670;23.318;2024-03-02T03:17:29;46.73;;;22.40;;
6149;SDS011;3106;42.670;23.318;2024-03-02T03:19:56;55.50;;;23.17;;
6149;SDS011;3106;42.670;23.318;2024-03-02T03:22:23;48.57;;;21.83;;
6149;SDS011;3106;42.670;23.318;2024-03-02T03:24:51;47.93;;;21.50;;
6149;SDS011;3106;42.670;23.318;2024-03-02T03:27:18;46.83;;;22.57;;
6149;SDS011;3106;42.670;23.318;2024-03-02T03:29:45;48.80;;;21.30;;
6149;SDS011;3106;42.670;23.318;2024-03-02T03:32:19;56.00;;;22.47;;
6149;SDS011;3106;42.670;23.318;2024-03-02T03:34:48;47.40;;;22.57;;
6149;SDS011;3106;42.670;23.318;2024-03-02T03:37:18;47.37;;;20.90;;
6149;SDS011;3106;42.670;23.318;2024-03-02T03:39:47;48.60;;;21.17;;
6149;SDS011;3106;42.670;23.318;2024-03-02T03:42:18;49.37;;;22.13;;
6149;SDS011;3106;42.670;23.318;2024-03-02T03:44:47;43.40;;;20.00;;
6149;SDS011;3106;42.670;23.318;2024-03-02T03:47:17;56.00;;;22.00;;
6149;SDS011;3106;42.670;23.318;2024-03-02T03:49:43;55.83;;;22.00;;
6149;SDS011;3106;42.670;23.318;2024-03-02T03:52:11;50.13;;;21.50;;
6149;SDS011;3106;42.670;23.318;2024-03-02T03:54:39;46.33;;;21.30;;
6149;SDS011;3106;42.670;23.318;2024-03-02T03:57:08;48.43;;;22.10;;
6149;SDS011;3106;42.670;23.318;2024-03-02T03:59:35;44.83;;;22.30;;
6149;SDS011;3106;42.670;23.318;2024-03-02T04:02:02;49.60;;;23.10;;
6149;SDS011;3106;42.670;23.318;2024-03-02T04:04:31;48.80;;;22.50;;
6149;SDS011;3106;42.670;23.318;2024-03-02T04:06:58;45.53;;;22.73;;
6149;SDS011;3106;42.670;23.318;2024-03-02T04:09:26;52.43;;;21.90;;
6149;SDS011;3106;42.670;23.318;2024-03-02T04:11:52;49.10;;;23.20;;
6149;SDS011;3106;42.670;23.318;2024-03-02T04:14:20;53.80;;;24.93;;
6149;SDS011;3106;42.670;23.318;2024-03-02T04:16:47;54.30;;;25.03;;
6149;SDS011;3106;42.670;23.318;2024-03-02T04:19:14;58.67;;;27.20;;
6149;SDS011;3106;42.670;23.318;2024-03-02T04:21:42;57.50;;;26.17;;
6149;SDS011;3106;42.670;23.318;2024-03-02T04:24:08;61.00;;;28.07;;
6149;SDS011;3106;42.670;23.318;2024-03-02T04:26:35;57.80;;;25.70;;
6149;SDS011;3106;42.670;23.318;2024-03-02T04:29:05;59.83;;;25.23;;
6149;SDS011;3106;42.670;23.318;2024-03-02T04:31:33;58.07;;;26.00;;
6149;SDS011;3106;42.670;23.318;2024-03-02T04:33:59;48.67;;;23.53;;
6149;SDS011;3106;42.670;23.318;2024-03-02T04:36:26;53.40;;;22.73;;
6149;SDS011;3106;42.670;23.318;2024-03-02T04:38:54;49.60;;;23.40;;
6149;SDS011;3106;42.670;23.318;2024-03-02T04:41:22;58.03;;;25.00;;
6149;SDS011;3106;42.670;23.318;2024-03-02T04:43:49;57.30;;;26.20;;
6149;SDS011;3106;42.670;23.318;2024-03-02T04:46:16;52.43;;;23.47;;
6149;SDS011;3106;42.670;23.318;2024-03-02T04:48:42;54.87;;;25.70;;
6149;SDS011;3106;42.670;23.318;2024-03-02T04:51:11;58.07;;;27.07;;
6149;SDS011;3106;42.670;23.318;2024-03-02T04:53:38;61.43;;;26.23;;
6149;SDS011;3106;42.670;23.318;2024-03-02T04:56:07;62.50;;;27.57;;
6149;SDS011;3106;42.670;23.318;2024-03-02T04:58:52;57.10;;;26.17;;
6149;SDS011;3106;42.670;23.318;2024-03-02T05:01:19;66.53;;;29.70;;
6149;SDS011;3106;42.670;23.318;2024-03-02T05:03:45;62.87;;;29.23;;
6149;SDS011;3106;42.670;23.318;2024-03-02T05:06:12;58.77;;;26.73;;
6149;SDS011;3106;42.670;23.318;2024-03-02T05:08:39;65.47;;;28.63;;
6149;SDS011;3106;42.670;23.318;2024-03-02T05:11:11;72.17;;;28.77;;
6149;SDS011;3106;42.670;23.318;2024-03-02T05:13:57;77.23;;;31.00;;
6149;SDS011;3106;42.670;23.318;2024-03-02T05:16:24;72.27;;;30.30;;
6149;SDS011;3106;42.670;23.318;2024-03-02T05:18:51;62.80;;;30.67;;
6149;SDS011;3106;42.670;23.318;2024-03-02T05:21:18;75.53;;;32.27;;
6149;SDS011;3106;42.670;23.318;2024-03-02T05:23:47;77.67;;;32.87;;
6149;SDS011;3106;42.670;23.318;2024-03-02T05:26:15;85.37;;;35.33;;
6149;SDS011;3106;42.670;23.318;2024-03-02T05:28:41;75.17;;;34.07;;
6149;SDS011;3106;42.670;23.318;2024-03-02T05:31:09;81.20;;;33.90;;
6149;SDS011;3106;42.670;23.318;2024-03-02T05:33:37;80.27;;;33.10;;
6149;SDS011;3106;42.670;23.318;2024-03-02T05:36:04;88.03;;;35.03;;
6149;SDS011;3106;42.670;23.318;2024-03-02T05:38:31;84.93;;;34.37;;
6149;SDS011;3106;42.670;23.318;2024-03-02T05:40:58;81.80;;;33.90;;
6149;SDS011;3106;42.670;23.318;2024-03-02T05:43:25;85.00;;;34.30;;
6149;SDS011;3106;42.670;23.318;2024-03-02T05:45:52;88.93;;;34.40;;
6149;SDS011;3106;42.670;23.318;2024-03-02T05:48:19;79.70;;;33.87;;
6149;SDS011;3106;42.670;23.318;2024-03-02T05:50:46;87.27;;;34.57;;
6149;SDS011;3106;42.670;23.318;2024-03-02T05:53:12;88.20;;;33.37;;
6149;SDS011;3106;42.670;23.318;2024-03-02T05:55:40;90.00;;;37.07;;
6149;SDS011;3106;42.670;23.318;2024-03-02T05:58:08;92.00;;;35.50;;
6149;SDS011;3106;42.670;23.318;2024-03-02T06:00:49;72.37;;;31.47;;
6149;SDS011;3106;42.670;23.318;2024-03-02T06:03:15;80.63;;;33.80;;
6149;SDS011;3106;42.670;23.318;2024-03-02T06:05:42;87.03;;;34.50;;
6149;SDS011;3106;42.670;23.318;2024-03-02T06:08:09;73.87;;;31.73;;
6149;SDS011;3106;42.670;23.318;2024-03-02T06:10:35;81.83;;;33.63;;
6149;SDS011;3106;42.670;23.318;2024-03-02T06:13:03;77.73;;;32.27;;
6149;SDS011;3106;42.670;23.318;2024-03-02T06:15:30;74.57;;;33.37;;
6149;SDS011;3106;42.670;23.318;2024-03-02T06:17:59;86.87;;;32.80;;
6149;SDS011;3106;42.670;23.318;2024-03-02T06:20:26;79.93;;;30.97;;
6149;SDS011;3106;42.670;23.318;2024-03-02T06:22:55;66.33;;;30.63;;
6149;SDS011;3106;42.670;23.318;2024-03-02T06:25:22;77.33;;;31.23;;
6149;SDS011;3106;42.670;23.318;2024-03-02T06:27:49;78.27;;;31.17;;
6149;SDS011;3106;42.670;23.318;2024-03-02T06:30:16;77.60;;;29.10;;
6149;SDS011;3106;42.670;23.318;2024-03-02T06:32:42;60.13;;;25.50;;
6149;SDS011;3106;42.670;23.318;2024-03-02T06:35:12;57.27;;;23.27;;
6149;SDS011;3106;42.670;23.318;2024-03-02T06:37:39;55.87;;;24.00;;
6149;SDS011;3106;42.670;23.318;2024-03-02T06:40:06;60.17;;;25.73;;
6149;SDS011;3106;42.670;23.318;2024-03-02T06:42:34;61.50;;;25.17;;
6149;SDS011;3106;42.670;23.318;2024-03-02T06:45:01;62.40;;;24.87;;
6149;SDS011;3106;42.670;23.318;2024-03-02T06:47:29;60.63;;;24.40;;
6149;SDS011;3106;42.670;23.318;2024-03-02T06:49:56;52.83;;;22.87;;
6149;SDS011;3106;42.670;23.318;2024-03-02T06:52:25;51.63;;;23.93;;
6149;SDS011;3106;42.670;23.318;2024-03-02T06:54:52;65.40;;;23.80;;
6149;SDS011;3106;42.670;23.318;2024-03-02T06:57:18;54.80;;;24.77;;
6149;SDS011;3106;42.670;23.318;2024-03-02T06:59:46;55.37;;;23.50;;
6149;SDS011;3106;42.670;23.318;2024-03-02T07:02:15;56.67;;;25.10;;
6149;SDS011;3106;42.670;23.318;2024-03-02T07:04:42;55.97;;;23.60;;
6149;SDS011;3106;42.670;23.318;2024-03-02T07:07:10;57.63;;;25.37;;
6149;SDS011;3106;42.670;23.318;2024-03-02T07:09:38;60.73;;;25.43;;
6149;SDS011;3106;42.670;23.318;2024-03-02T07:12:10;61.80;;;23.57;;
6149;SDS011;3106;42.670;23.318;2024-03-02T07:14:37;59.57;;;24.70;;
6149;SDS011;3106;42.670;23.318;2024-03-02T07:17:21;54.67;;;24.17;;
6149;SDS011;3106;42.670;23.318;2024-03-02T07:19:51;54.07;;;25.00;;
6149;SDS011;3106;42.670;23.318;2024-03-02T07:22:17;55.27;;;25.40;;
6149;SDS011;3106;42.670;23.318;2024-03-02T07:24:47;56.27;;;23.87;;
6149;SDS011;3106;42.670;23.318;2024-03-02T07:27:14;58.60;;;24.00;;
6149;SDS011;3106;42.670;23.318;2024-03-02T07:29:42;63.33;;;24.40;;
6149;SDS011;3106;42.670;23.318;2024-03-02T07:32:09;61.37;;;24.87;;
6149;SDS011;3106;42.670;23.318;2024-03-02T07:34:36;59.30;;;24.40;;
6149;SDS011;3106;42.670;23.318;2024-03-02T07:37:03;55.73;;;23.70;;
6149;SDS011;3106;42.670;23.318;2024-03-02T07:39:34;55.00;;;24.70;;
6149;SDS011;3106;42.670;23.318;2024-03-02T07:42:05;59.33;;;24.00;;
6149;SDS011;3106;42.670;23.318;2024-03-02T07:44:33;55.57;;;25.00;;
6149;SDS011;3106;42.670;23.318;2024-03-02T07:47:00;57.13;;;24.87;;
6149;SDS011;3106;42.670;23.318;2024-03-02T07:49:27;57.90;;;25.57;;
6149;SDS011;3106;42.670;23.318;2024-03-02T07:51:54;60.17;;;25.50;;
6149;SDS011;3106;42.670;23.318;2024-03-02T07:54:21;59.20;;;26.20;;
6149;SDS011;3106;42.670;23.318;2024-03-02T07:56:48;63.53;;;25.63;;
6149;SDS011;3106;42.670;23.318;2024-03-02T07:59:16;56.47;;;25.20;;
6149;SDS011;3106;42.670;23.318;2024-03-02T08:01:54;57.93;;;23.80;;
6149;SDS011;3106;42.670;23.318;2024-03-02T08:04:21;65.07;;;23.97;;
6149;SDS011;3106;42.670;23.318;2024-03-02T08:06:49;55.80;;;22.90;;
6149;SDS011;3106;42.670;23.318;2024-03-02T08:09:16;59.87;;;24.30;;
6149;SDS011;3106;42.670;23.318;2024-03-02T08:11:45;56.30;;;23.57;;
6149;SDS011;3106;42.670;23.318;2024-03-02T08:14:12;56.93;;;22.77;;
6149;SDS011;3106;42.670;23.318;2024-03-02T08:16:40;53.70;;;22.67;;
6149;SDS011;3106;42.670;23.318;2024-03-02T08:19:07;57.67;;;25.00;;
6149;SDS011;3106;42.670;23.318;2024-03-02T08:21:36;53.23;;;23.53;;
6149;SDS011;3106;42.670;23.318;2024-03-02T08:24:03;48.73;;;22.80;;
6149;SDS011;3106;42.670;23.318;2024-03-02T08:26:34;56.30;;;22.23;;
6149;SDS011;3106;42.670;23.318;2024-03-02T08:29:04;50.43;;;21.77;;
6149;SDS011;3106;42.670;23.318;2024-03-02T08:31:30;54.97;;;24.47;;
6149;SDS011;3106;42.670;23.318;2024-03-02T08:33:59;61.60;;;24.20;;
6149;SDS011;3106;42.670;23.318;2024-03-02T08:36:27;53.20;;;22.17;;
6149;SDS011;3106;42.670;23.318;2024-03-02T08:38:54;55.37;;;22.20;;
6149;SDS011;3106;42.670;23.318;2024-03-02T08:41:21;45.97;;;20.83;;
6149;SDS011;3106;42.670;23.318;2024-03-02T08:43:48;47.80;;;20.90;;
6149;SDS011;3106;42.670;23.318;2024-03-02T08:46:15;55.20;;;22.67;;
6149;SDS011;3106;42.670;23.318;2024-03-02T08:48:42;59.73;;;24.00;;
6149;SDS011;3106;42.670;23.318;2024-03-02T08:51:11;52.97;;;21.53;;
6149;SDS011;3106;42.670;23.318;2024-03-02T08:53:38;52.47;;;23.10;;
6149;SDS011;3106;42.670;23.318;2024-03-02T08:56:07;47.10;;;21.57;;
6149;SDS011;3106;42.670;23.318;2024-03-02T08:58:34;48.27;;;21.87;;
6149;SDS011;3106;42.670;23.318;2024-03-02T09:01:01;44.23;;;20.73;;
6149;SDS011;3106;42.670;23.318;2024-03-02T09:03:28;48.03;;;21.00;;
6149;SDS011;3106;42.670;23.318;2024-03-02T09:05:58;45.87;;;21.03;;
6149;SDS011;3106;42.670;23.318;2024-03-02T09:08:28;43.77;;;20.90;;
6149;SDS011;3106;42.670;23.318;2024-03-02T09:10:55;50.60;;;22.13;;
6149;SDS011;3106;42.670;23.318;2024-03-02T09:13:22;46.20;;;21.73;;
6149;SDS011;3106;42.670;23.318;2024-03-02T09:15:49;47.00;;;21.70;;
6149;SDS011;3106;42.670;23.318;2024-03-02T09:18:25;43.50;;;21.10;;
6149;SDS011;3106;42.670;23.318;2024-03-02T09:20:53;45.93;;;20.60;;
6149;SDS011;3106;42.670;23.318;2024-03-02T09:23:21;47.17;;;20.50;;
6149;SDS011;3106;42.670;23.318;2024-03-02T09:25:54;38.00;;;19.63;;
6149;SDS011;3106;42.670;23.318;2024-03-02T09:28:21;48.07;;;20.23;;
6149;SDS011;3106;42.670;23.318;2024-03-02T09:30:53;45.30;;;20.77;;
6149;SDS011;3106;42.670;23.318;2024-03-02T09:33:22;41.70;;;19.73;;
6149;SDS011;3106;42.670;23.318;2024-03-02T09:36:02;40.30;;;20.40;;
6149;SDS011;3106;42.670;23.318;2024-03-02T09:38:30;38.33;;;18.93;;
6149;SDS011;3106;42.670;23.318;2024-03-02T09:41:01;50.07;;;21.87;;
6149;SDS011;3106;42.670;23.318;2024-03-02T09:43:29;47.73;;;20.53;;
6149;SDS011;3106;42.670;23.318;2024-03-02T09:45:59;41.93;;;20.60;;
6149;SDS011;3106;42.670;23.318;2024-03-02T09:48:28;48.17;;;19.50;;
6149;SDS011;3106;42.670;23.318;2024-03-02T09:51:01;43.10;;;20.27;;
6149;SDS011;3106;42.670;23.318;2024-03-02T09:56:52;48.73;;;19.73;;
6149;SDS011;3106;42.670;23.318;2024-03-02T09:59:21;50.33;;;21.10;;
6149;SDS011;3106;42.670;23.318;2024-03-02T10:01:57;43.23;;;20.40;;
6149;SDS011;3106;42.670;23.318;2024-03-02T10:04:28;46.43;;;20.60;;
6149;SDS011;3106;42.670;23.318;2024-03-02T10:07:13;42.30;;;21.47;;
6149;SDS011;3106;42.670;23.318;2024-03-02T10:09:40;47.27;;;20.07;;
6149;SDS011;3106;42.670;23.318;2024-03-02T10:12:10;47.70;;;22.00;;
6149;SDS011;3106;42.670;23.318;2024-03-02T10:14:38;49.63;;;21.23;;
6149;SDS011;3106;42.670;23.318;2024-03-02T10:17:08;52.40;;;22.80;;
6149;SDS011;3106;42.670;23.318;2024-03-02T10:19:35;50.60;;;21.57;;
6149;SDS011;3106;42.670;23.318;2024-03-02T10:22:06;51.67;;;22.33;;
6149;SDS011;3106;42.670;23.318;2024-03-02T10:24:37;51.73;;;22.67;;
6149;SDS011;3106;42.670;23.318;2024-03-02T10:27:07;66.77;;;22.10;;
6149;SDS011;3106;42.670;23.318;2024-03-02T10:29:39;48.53;;;21.10;;
6149;SDS011;3106;42.670;23.318;2024-03-02T10:32:08;48.50;;;23.40;;
6149;SDS011;3106;42.670;23.318;2024-03-02T10:34:36;62.47;;;24.20;;
6149;SDS011;3106;42.670;23.318;2024-03-02T10:37:04;50.30;;;23.13;;
6149;SDS011;3106;42.670;23.318;2024-03-02T10:39:32;57.60;;;21.47;;
6149;SDS011;3106;42.670;23.318;2024-03-02T10:42:00;49.63;;;22.67;;
6149;SDS011;3106;42.670;23.318;2024-03-02T10:44:35;54.10;;;23.57;;
6149;SDS011;3106;42.670;23.318;2024-03-02T10:47:04;57.57;;;24.67;;
6149;SDS011;3106;42.670;23.318;2024-03-02T10:49:38;53.40;;;22.33;;
6149;SDS011;3106;42.670;23.318;2024-03-02T10:52:17;59.53;;;22.60;;
6149;SDS011;3106;42.670;23.318;2024-03-02T10:54:48;56.07;;;23.07;;
6149;SDS011;3106;42.670;23.318;2024-03-02T10:57:19;51.37;;;21.73;;
6149;SDS011;3106;42.670;23.318;2024-03-02T10:59:56;51.70;;;24.37;;
6149;SDS011;3106;42.670;23.318;2024-03-02T11:02:27;55.43;;;22.40;;
6149;SDS011;3106;42.670;23.318;2024-03-02T11:04:57;58.73;;;24.67;;
6149;SDS011;3106;42.670;23.318;2024-03-02T11:07:28;51.00;;;22.30;;
6149;SDS011;3106;42.670;23.318;2024-03-02T11:09:57;48.67;;;21.63;;
6149;SDS011;3106;42.670;23.318;2024-03-02T11:12:35;53.80;;;22.50;;
6149;SDS011;3106;42.670;23.318;2024-03-02T11:15:09;45.53;;;20.50;;
6149;SDS011;3106;42.670;23.318;2024-03-02T11:17:37;50.27;;;22.50;;
6149;SDS011;3106;42.670;23.318;2024-03-02T11:20:06;50.63;;;23.83;;
6149;SDS011;3106;42.670;23.318;2024-03-02T11:22:35;47.80;;;21.87;;
6149;SDS011;3106;42.670;23.318;2024-03-02T11:25:03;49.33;;;21.27;;
6149;SDS011;3106;42.670;23.318;2024-03-02T11:33:24;51.83;;;21.90;;
6149;SDS011;3106;42.670;23.318;2024-03-02T11:35:56;56.50;;;23.23;;
6149;SDS011;3106;42.670;23.318;2024-03-02T11:38:28;47.57;;;21.47;;
6149;SDS011;3106;42.670;23.318;2024-03-02T11:40:56;50.57;;;19.23;;
6149;SDS011;3106;42.670;23.318;2024-03-02T11:43:24;50.90;;;23.27;;
6149;SDS011;3106;42.670;23.318;2024-03-02T11:45:57;46.10;;;21.50;;
6149;SDS011;3106;42.670;23.318;2024-03-02T11:48:25;41.77;;;21.47;;
6149;SDS011;3106;42.670;23.318;2024-03-02T11:50:53;47.60;;;18.80;;
6149;SDS011;3106;42.670;23.318;2024-03-02T11:53:26;39.70;;;19.90;;
6149;SDS011;3106;42.670;23.318;2024-03-02T11:55:55;44.00;;;20.90;;
6149;SDS011;3106;42.670;23.318;2024-03-02T11:58:23;50.20;;;20.30;;
6149;SDS011;3106;42.670;23.318;2024-03-02T12:00:52;44.73;;;21.23;;
6149;SDS011;3106;42.670;23.318;2024-03-02T12:03:24;50.70;;;22.93;;
6149;SDS011;3106;42.670;23.318;2024-03-02T12:05:52;57.17;;;23.17;;
6149;SDS011;3106;42.670;23.318;2024-03-02T12:08:20;54.10;;;23.40;;
6149;SDS011;3106;42.670;23.318;2024-03-02T12:10:57;44.83;;;19.77;;
6149;SDS011;3106;42.670;23.318;2024-03-02T12:13:25;54.20;;;22.83;;
6149;SDS011;3106;42.670;23.318;2024-03-02T12:15:56;45.60;;;20.93;;
6149;SDS011;3106;42.670;23.318;2024-03-02T12:18:24;48.57;;;22.70;;
6149;SDS011;3106;42.670;23.318;2024-03-02T12:20:51;48.87;;;22.23;;
6149;SDS011;3106;42.670;23.318;2024-03-02T12:23:22;48.97;;;22.00;;
6149;SDS011;3106;42.670;23.318;2024-03-02T12:25:49;47.77;;;22.73;;
6149;SDS011;3106;42.670;23.318;2024-03-02T12:28:16;44.70;;;21.93;;
6149;SDS011;3106;42.670;23.318;2024-03-02T12:30:44;47.90;;;22.23;;
6149;SDS011;3106;42.670;23.318;2024-03-02T12:33:12;54.07;;;22.60;;
6149;SDS011;3106;42.670;23.318;2024-03-02T12:35:41;49.80;;;23.87;;
6149;SDS011;3106;42.670;23.318;2024-03-02T12:38:09;49.93;;;23.80;;
6149;SDS011;3106;42.670;23.318;2024-03-02T12:40:37;49.90;;;24.37;;
6149;SDS011;3106;42.670;23.318;2024-03-02T12:43:05;49.57;;;23.20;;
6149;SDS011;3106;42.670;23.318;2024-03-02T12:45:32;54.57;;;25.63;;
6149;SDS011;3106;42.670;23.318;2024-03-02T12:48:00;46.87;;;22.67;;
6149;SDS011;3106;42.670;23.318;2024-03-02T12:50:27;42.60;;;22.33;;
6149;SDS011;3106;42.670;23.318;2024-03-02T12:52:56;37.20;;;20.90;;
6149;SDS011;3106;42.670;23.318;2024-03-02T12:55:24;41.47;;;22.80;;
6149;SDS011;3106;42.670;23.318;2024-03-02T12:57:51;43.80;;;21.53;;
6149;SDS011;3106;42.670;23.318;2024-03-02T13:00:19;42.20;;;20.80;;
6149;SDS011;3106;42.670;23.318;2024-03-02T13:02:48;43.23;;;22.10;;
6149;SDS011;3106;42.670;23.318;2024-03-02T13:05:15;42.80;;;21.00;;
6149;SDS011;3106;42.670;23.318;2024-03-02T13:07:44;41.90;;;21.37;;
6149;SDS011;3106;42.670;23.318;2024-03-02T13:10:15;41.83;;;20.17;;
6149;SDS011;3106;42.670;23.318;2024-03-02T13:12:43;39.63;;;20.20;;
6149;SDS011;3106;42.670;23.318;2024-03-02T13:15:09;40.50;;;20.47;;
6149;SDS011;3106;42.670;23.318;2024-03-02T13:17:36;37.90;;;20.13;;
6149;SDS011;3106;42.670;23.318;2024-03-02T13:20:05;41.97;;;20.27;;
6149;SDS011;3106;42.670;23.318;2024-03-02T13:22:35;44.50;;;19.57;;
6149;SDS011;3106;42.670;23.318;2024-03-02T13:25:03;37.17;;;19.90;;
6149;SDS011;3106;42.670;23.318;2024-03-02T13:27:34;40.53;;;20.30;;
6149;SDS011;3106;42.670;23.318;2024-03-02T13:30:05;45.03;;;20.90;;
6149;SDS011;3106;42.670;23.318;2024-03-02T13:32:39;45.93;;;20.80;;
6149;SDS011;3106;42.670;23.318;2024-03-02T13:35:07;42.63;;;20.67;;
6149;SDS011;3106;42.670;23.318;2024-03-02T13:37:37;39.57;;;20.27;;
6149;SDS011;3106;42.670;23.318;2024-03-02T13:40:05;43.87;;;21.47;;
6149;SDS011;3106;42.670;23.318;2024-03-02T13:42:39;42.67;;;20.70;;
6149;SDS011;3106;42.670;23.318;2024-03-02T13:45:07;44.47;;;20.37;;
6149;SDS011;3106;42.670;23.318;2024-03-02T13:47:36;44.80;;;21.57;;
6149;SDS011;3106;42.670;23.318;2024-03-02T13:50:05;44.40;;;21.17;;
6149;SDS011;3106;42.670;23.318;2024-03-02T13:52:34;37.50;;;20.00;;
6149;SDS011;3106;42.670;23.318;2024-03-02T13:55:01;39.70;;;21.47;;
6149;SDS011;3106;42.670;23.318;2024-03-02T13:57:29;47.33;;;20.57;;
6149;SDS011;3106;42.670;23.318;2024-03-02T13:59:58;38.43;;;20.60;;
6149;SDS011;3106;42.670;23.318;2024-03-02T14:02:28;43.03;;;21.90;;
6149;SDS011;3106;42.670;23.318;2024-03-02T14:04:55;45.20;;;20.00;;
6149;SDS011;3106;42.670;23.318;2024-03-02T14:07:21;37.13;;;20.00;;
6149;SDS011;3106;42.670;23.318;2024-03-02T14:09:48;43.00;;;21.50;;
6149;SDS011;3106;42.670;23.318;2024-03-02T14:12:15;39.50;;;19.80;;
6149;SDS011;3106;42.670;23.318;2024-03-02T14:14:42;45.87;;;21.80;;
6149;SDS011;3106;42.670;23.318;2024-03-02T14:17:11;41.50;;;19.67;;
6149;SDS011;3106;42.670;23.318;2024-03-02T14:19:41;49.40;;;21.70;;
6149;SDS011;3106;42.670;23.318;2024-03-02T14:22:08;40.83;;;20.20;;
6149;SDS011;3106;42.670;23.318;2024-03-02T14:24:38;40.57;;;20.93;;
6149;SDS011;3106;42.670;23.318;2024-03-02T14:27:07;38.80;;;19.70;;
6149;SDS011;3106;42.670;23.318;2024-03-02T14:29:34;49.77;;;23.00;;
6149;SDS011;3106;42.670;23.318;2024-03-02T14:32:05;48.20;;;22.23;;
6149;SDS011;3106;42.670;23.318;2024-03-02T14:34:37;42.93;;;21.47;;
6149;SDS011;3106;42.670;23.318;2024-03-02T14:37:05;41.03;;;21.20;;
6149;SDS011;3106;42.670;23.318;2024-03-02T14:39:32;44.27;;;20.57;;
6149;SDS011;3106;42.670;23.318;2024-03-02T14:42:01;45.63;;;21.30;;
6149;SDS011;3106;42.670;23.318;2024-03-02T14:44:27;42.80;;;21.50;;
6149;SDS011;3106;42.670;23.318;2024-03-02T14:46:56;44.13;;;21.90;;
6149;SDS011;3106;42.670;23.318;2024-03-02T14:49:24;46.10;;;23.13;;
6149;SDS011;3106;42.670;23.318;2024-03-02T14:51:55;45.90;;;21.60;;